sensor_id;sensor_type;location;lat;lon;timestamp;pressure;altitude;pressure_sealevel;temperature;humidity
8575;BME280;4325;42.520;27.448;2022-11-20T00:01:04;100800.88;;;19.66;100.00
8575;BME280;4325;42.520;27.448;2022-11-20T00:03:31;100799.25;;;19.65;100.00
8575;BME280;4325;42.520;27.448;2022-11-20T00:05:59;100797.63;;;19.64;100.00
8575;BME280;4325;42.520;27.448;2022-11-20T00:08:26;100795.31;;;19.66;100.00
8575;BME280;4325;42.520;27.448;2022-11-20T00:10:53;100802.03;;;19.65;100.00
8575;BME280;4325;42.520;27.448;2022-11-20T00:13:21;100808.72;;;19.64;100.00
8575;BME280;4325;42.520;27.448;2022-11-20T00:15:48;100814.97;;;19.61;100.00
8575;BME280;4325;42.520;27.448;2022-11-20T00:18:15;100801.88;;;19.62;100.00
8575;BME280;4325;42.520;27.448;2022-11-20T00:20:42;100806.44;;;19.66;100.00
8575;BME280;4325;42.520;27.448;2022-11-20T00:23:09;100798.09;;;19.66;100.00
8575;BME280;4325;42.520;27.448;2022-11-20T00:25:35;100805.59;;;19.74;100.00
8575;BME280;4325;42.520;27.448;2022-11-20T00:28:03;100797.25;;;19.74;100.00
8575;BME280;4325;42.520;27.448;2022-11-20T00:30:31;100794.31;;;19.80;100.00
8575;BME280;4325;42.520;27.448;2022-11-20T00:32:58;100800.81;;;19.84;100.00
8575;BME280;4325;42.520;27.448;2022-11-20T00:35:24;100798.38;;;19.91;100.00
8575;BME280;4325;42.520;27.448;2022-11-20T00:37:51;100802.75;;;19.92;100.00
8575;BME280;4325;42.520;27.448;2022-11-20T00:40:18;100806.19;;;19.97;100.00
8575;BME280;4325;42.520;27.448;2022-11-20T00:42:45;100806.31;;;20.01;100.00
8575;BME280;4325;42.520;27.448;2022-11-20T00:45:12;100800.75;;;20.01;100.00
8575;BME280;4325;42.520;27.448;2022-11-20T00:47:40;100804.72;;;20.00;100.00
8575;BME280;4325;42.520;27.448;2022-11-20T00:50:07;100795.72;;;20.03;100.00
8575;BME280;4325;42.520;27.448;2022-11-20T00:52:34;100788.97;;;20.04;100.00
8575;BME280;4325;42.520;27.448;2022-11-20T00:55:01;100770.00;;;20.06;100.00
8575;BME280;4325;42.520;27.448;2022-11-20T00:57:28;100789.44;;;20.14;100.00
8575;BME280;4325;42.520;27.448;2022-11-20T00:59:55;100777.34;;;20.10;100.00
8575;BME280;4325;42.520;27.448;2022-11-20T01:02:21;100788.50;;;20.02;100.00
8575;BME280;4325;42.520;27.448;2022-11-20T01:04:50;100771.19;;;19.96;100.00
8575;BME280;4325;42.520;27.448;2022-11-20T01:07:17;100794.91;;;19.94;100.00
8575;BME280;4325;42.520;27.448;2022-11-20T01:09:43;100776.31;;;19.86;100.00
8575;BME280;4325;42.520;27.448;2022-11-20T01:12:10;100786.97;;;19.75;100.00
8575;BME280;4325;42.520;27.448;2022-11-20T01:14:37;100773.09;;;19.75;100.00
8575;BME280;4325;42.520;27.448;2022-11-20T01:17:04;100778.97;;;19.73;100.00
8575;BME280;4325;42.520;27.448;2022-11-20T01:19:31;100769.97;;;19.76;100.00
8575;BME280;4325;42.520;27.448;2022-11-20T01:21:59;100761.31;;;19.69;100.00
8575;BME280;4325;42.520;27.448;2022-11-20T01:24:26;100765.91;;;19.65;100.00
8575;BME280;4325;42.520;27.448;2022-11-20T01:26:53;100760.06;;;19.58;100.00
8575;BME280;4325;42.520;27.448;2022-11-20T01:29:22;100758.44;;;19.57;100.00
8575;BME280;4325;42.520;27.448;2022-11-20T01:31:49;100763.84;;;19.54;100.00
8575;BME280;4325;42.520;27.448;2022-11-20T01:34:19;100749.66;;;19.47;100.00
8575;BME280;4325;42.520;27.448;2022-11-20T01:36:46;100758.63;;;19.44;100.00
8575;BME280;4325;42.520;27.448;2022-11-20T01:39:16;100746.06;;;19.46;100.00
8575;BME280;4325;42.520;27.448;2022-11-20T01:41:43;100734.78;;;19.43;100.00
8575;BME280;4325;42.520;27.448;2022-11-20T01:44:48;100745.88;;;19.43;100.00
8575;BME280;4325;42.520;27.448;2022-11-20T01:47:17;100746.06;;;19.46;100.00
8575;BME280;4325;42.520;27.448;2022-11-20T01:49:49;100741.78;;;19.49;100.00
8575;BME280;4325;42.520;27.448;2022-11-20T01:52:19;100732.47;;;19.53;100.00
8575;BME280;4325;42.520;27.448;2022-11-20T01:54:51;100728.56;;;19.46;100.00
8575;BME280;4325;42.520;27.448;2022-11-20T01:57:22;100726.78;;;19.41;100.00
8575;BME280;4325;42.520;27.448;2022-11-20T01:59:53;100725.78;;;19.37;100.00
8575;BME280;4325;42.520;27.448;2022-11-20T02:02:23;100728.88;;;19.36;100.00
8575;BME280;4325;42.520;27.448;2022-11-20T02:04:51;100728.75;;;19.32;100.00
8575;BME280;4325;42.520;27.448;2022-11-20T02:07:21;100722.38;;;19.32;100.00
8575;BME280;4325;42.520;27.448;2022-11-20T02:09:50;100728.09;;;19.27;100.00
8575;BME280;4325;42.520;27.448;2022-11-20T02:12:18;100723.53;;;19.22;100.00
8575;BME280;4325;42.520;27.448;2022-11-20T02:14:58;100734.94;;;19.29;100.00
8575;BME280;4325;42.520;27.448;2022-11-20T02:17:26;100730.34;;;19.33;100.00
8575;BME280;4325;42.520;27.448;2022-11-20T02:19:53;100733.31;;;19.28;100.00
8575;BME280;4325;42.520;27.448;2022-11-20T02:22:24;100742.78;;;19.27;100.00
8575;BME280;4325;42.520;27.448;2022-11-20T02:24:56;100741.97;;;19.27;100.00
8575;BME280;4325;42.520;27.448;2022-11-20T02:27:26;100748.84;;;19.29;100.00
8575;BME280;4325;42.520;27.448;2022-11-20T02:29:56;100747.66;;;19.30;100.00
8575;BME280;4325;42.520;27.448;2022-11-20T02:32:26;100736.91;;;19.37;100.00
8575;BME280;4325;42.520;27.448;2022-11-20T02:34:53;100734.31;;;19.32;100.00
8575;BME280;4325;42.520;27.448;2022-11-20T02:37:21;100740.63;;;19.33;100.00
8575;BME280;4325;42.520;27.448;2022-11-20T02:39:50;100735.09;;;19.33;100.00
8575;BME280;4325;42.520;27.448;2022-11-20T02:42:19;100739.84;;;19.32;100.00
8575;BME280;4325;42.520;27.448;2022-11-20T02:44:45;100726.94;;;19.28;100.00
8575;BME280;4325;42.520;27.448;2022-11-20T02:47:12;100741.16;;;19.26;100.00
8575;BME280;4325;42.520;27.448;2022-11-20T02:49:39;100738.56;;;19.21;100.00
8575;BME280;4325;42.520;27.448;2022-11-20T02:52:06;100743.44;;;19.16;100.00
8575;BME280;4325;42.520;27.448;2022-11-20T02:54:33;100751.63;;;19.12;100.00
8575;BME280;4325;42.520;27.448;2022-11-20T02:57:00;100750.00;;;19.11;100.00
8575;BME280;4325;42.520;27.448;2022-11-20T02:59:28;100746.06;;;19.12;100.00
8575;BME280;4325;42.520;27.448;2022-11-20T03:01:54;100759.31;;;19.15;100.00
8575;BME280;4325;42.520;27.448;2022-11-20T03:04:21;100755.84;;;19.18;100.00
8575;BME280;4325;42.520;27.448;2022-11-20T03:06:48;100767.47;;;19.20;100.00
8575;BME280;4325;42.520;27.448;2022-11-20T03:09:15;100764.69;;;19.20;100.00
8575;BME280;4325;42.520;27.448;2022-11-20T03:11:42;100754.38;;;19.29;100.00
8575;BME280;4325;42.520;27.448;2022-11-20T03:14:08;100763.38;;;19.26;100.00
8575;BME280;4325;42.520;27.448;2022-11-20T03:16:37;100763.38;;;19.26;100.00
8575;BME280;4325;42.520;27.448;2022-11-20T03:19:04;100762.41;;;19.22;100.00
8575;BME280;4325;42.520;27.448;2022-11-20T03:21:32;100780.84;;;19.18;100.00
8575;BME280;4325;42.520;27.448;2022-11-20T03:23:59;100768.59;;;19.19;100.00
8575;BME280;4325;42.520;27.448;2022-11-20T03:26:27;100770.25;;;19.20;100.00
8575;BME280;4325;42.520;27.448;2022-11-20T03:28:55;100770.38;;;19.24;100.00
8575;BME280;4325;42.520;27.448;2022-11-20T03:31:24;100763.19;;;19.23;100.00
8575;BME280;4325;42.520;27.448;2022-11-20T03:33:53;100756.16;;;19.25;100.00
8575;BME280;4325;42.520;27.448;2022-11-20T03:36:20;100752.91;;;19.23;100.00
8575;BME280;4325;42.520;27.448;2022-11-20T03:38:48;100757.47;;;19.28;100.00
8575;BME280;4325;42.520;27.448;2022-11-20T03:41:17;100757.16;;;19.29;100.00
8575;BME280;4325;42.520;27.448;2022-11-20T03:43:47;100754.38;;;19.29;100.00
8575;BME280;4325;42.520;27.448;2022-11-20T03:46:14;100757.00;;;19.26;100.00
8575;BME280;4325;42.520;27.448;2022-11-20T03:48:41;100766.63;;;19.28;100.00
8575;BME280;4325;42.520;27.448;2022-11-20T03:51:11;100765.00;;;19.27;100.00
8575;BME280;4325;42.520;27.448;2022-11-20T03:53:38;100764.66;;;19.29;100.00
8575;BME280;4325;42.520;27.448;2022-11-20T03:56:06;100760.75;;;19.30;100.00
8575;BME280;4325;42.520;27.448;2022-11-20T03:58:34;100749.31;;;19.40;100.00
8575;BME280;4325;42.520;27.448;2022-11-20T04:01:06;100731.03;;;19.39;100.00
8575;BME280;4325;42.520;27.448;2022-11-20T04:03:34;100728.06;;;19.35;100.00
8575;BME280;4325;42.520;27.448;2022-11-20T04:06:05;100734.94;;;19.29;100.00
8575;BME280;4325;42.520;27.448;2022-11-20T04:08:34;100731.38;;;19.20;100.00
8575;BME280;4325;42.520;27.448;2022-11-20T04:11:12;100723.06;;;19.20;100.00
8575;BME280;4325;42.520;27.448;2022-11-20T04:13:40;100722.72;;;19.22;100.00
8575;BME280;4325;42.520;27.448;2022-11-20T04:16:07;100727.44;;;19.21;100.00
8575;BME280;4325;42.520;27.448;2022-11-20T04:18:35;100723.38;;;19.27;100.00
8575;BME280;4325;42.520;27.448;2022-11-20T04:21:03;100712.13;;;19.15;100.00
8575;BME280;4325;42.520;27.448;2022-11-20T04:23:30;100721.91;;;19.21;100.00
8575;BME280;4325;42.520;27.448;2022-11-20T04:26:02;100709.97;;;19.29;100.00
8575;BME280;4325;42.520;27.448;2022-11-20T04:28:29;100711.91;;;19.29;100.00
8575;BME280;4325;42.520;27.448;2022-11-20T04:31:02;100712.88;;;19.33;100.00
8575;BME280;4325;42.520;27.448;2022-11-20T04:33:29;100710.78;;;19.38;100.00
8575;BME280;4325;42.520;27.448;2022-11-20T04:36:00;100717.63;;;19.32;100.00
8575;BME280;4325;42.520;27.448;2022-11-20T04:38:27;100724.97;;;19.28;100.00
8575;BME280;4325;42.520;27.448;2022-11-20T04:40:56;100726.44;;;19.26;100.00
8575;BME280;4325;42.520;27.448;2022-11-20T04:43:25;100725.63;;;19.34;100.00
8575;BME280;4325;42.520;27.448;2022-11-20T04:45:52;100725.16;;;19.40;100.00
8575;BME280;4325;42.520;27.448;2022-11-20T04:48:19;100716.81;;;19.40;100.00
8575;BME280;4325;42.520;27.448;2022-11-20T04:50:46;100722.38;;;19.40;100.00
8575;BME280;4325;42.520;27.448;2022-11-20T04:53:13;100714.69;;;19.37;100.00
8575;BME280;4325;42.520;27.448;2022-11-20T04:55:39;100712.88;;;19.33;100.00
8575;BME280;4325;42.520;27.448;2022-11-20T04:58:06;100717.31;;;19.25;100.00
8575;BME280;4325;42.520;27.448;2022-11-20T05:00:35;100712.44;;;19.22;100.00
8575;BME280;4325;42.520;27.448;2022-11-20T05:03:02;100713.41;;;19.26;100.00
8575;BME280;4325;42.520;27.448;2022-11-20T05:05:29;100707.84;;;19.26;100.00
8575;BME280;4325;42.520;27.448;2022-11-20T05:07:56;100714.88;;;19.24;100.00
8575;BME280;4325;42.520;27.448;2022-11-20T05:10:23;100720.28;;;19.20;100.00
8575;BME280;4325;42.520;27.448;2022-11-20T05:12:50;100719.28;;;19.16;100.00
8575;BME280;4325;42.520;27.448;2022-11-20T05:15:16;100709.00;;;19.17;100.00
8575;BME280;4325;42.520;27.448;2022-11-20T05:17:48;100711.09;;;19.28;100.00
8575;BME280;4325;42.520;27.448;2022-11-20T05:20:15;100707.84;;;19.26;100.00
8575;BME280;4325;42.520;27.448;2022-11-20T05:22:44;100698.22;;;19.24;100.00
8575;BME280;4325;42.520;27.448;2022-11-20T05:25:11;100691.69;;;19.20;100.00
8575;BME280;4325;42.520;27.448;2022-11-20T05:27:38;100715.81;;;19.28;100.00
8575;BME280;4325;42.520;27.448;2022-11-20T05:30:06;100705.72;;;19.23;100.00
8575;BME280;4325;42.520;27.448;2022-11-20T05:32:34;100712.75;;;19.29;100.00
8575;BME280;4325;42.520;27.448;2022-11-20T05:35:02;100709.66;;;19.22;100.00
8575;BME280;4325;42.520;27.448;2022-11-20T05:37:29;100715.81;;;19.28;100.00
8575;BME280;4325;42.520;27.448;2022-11-20T05:39:56;100718.63;;;19.36;100.00
8575;BME280;4325;42.520;27.448;2022-11-20T05:42:23;100683.84;;;19.39;100.00
8575;BME280;4325;42.520;27.448;2022-11-20T05:44:59;100684.28;;;19.49;100.00
8575;BME280;4325;42.520;27.448;2022-11-20T05:47:27;100669.91;;;19.47;100.00
8575;BME280;4325;42.520;27.448;2022-11-20T05:49:54;100658.50;;;19.49;100.00
8575;BME280;4325;42.520;27.448;2022-11-20T05:52:23;100669.91;;;19.47;100.00
8575;BME280;4325;42.520;27.448;2022-11-20T05:54:49;100666.63;;;19.54;100.00
8575;BME280;4325;42.520;27.448;2022-11-20T05:57:16;100665.66;;;19.50;100.00
8575;BME280;4325;42.520;27.448;2022-11-20T05:59:43;100676.44;;;19.51;100.00
8575;BME280;4325;42.520;27.448;2022-11-20T06:02:10;100690.81;;;19.45;100.00
8575;BME280;4325;42.520;27.448;2022-11-20T06:04:37;100681.00;;;19.47;100.00
8575;BME280;4325;42.520;27.448;2022-11-20T06:07:05;100683.25;;;19.62;100.00
8575;BME280;4325;42.520;27.448;2022-11-20T06:09:33;100693.03;;;19.68;100.00
8575;BME280;4325;42.520;27.448;2022-11-20T06:12:00;100692.16;;;19.76;100.00
8575;BME280;4325;42.520;27.448;2022-11-20T06:14:27;100694.28;;;19.80;100.00
8575;BME280;4325;42.520;27.448;2022-11-20T06:16:54;100699.84;;;19.80;100.00
8575;BME280;4325;42.520;27.448;2022-11-20T06:19:20;100699.19;;;19.83;100.00
8575;BME280;4325;42.520;27.448;2022-11-20T06:21:47;100707.16;;;19.84;100.00
8575;BME280;4325;42.520;27.448;2022-11-20T06:24:14;100714.66;;;19.92;100.00
8575;BME280;4325;42.520;27.448;2022-11-20T06:26:43;100732.25;;;20.05;100.00
8575;BME280;4325;42.520;27.448;2022-11-20T06:29:10;100726.13;;;20.20;100.00
8575;BME280;4325;42.520;27.448;2022-11-20T06:31:37;100725.94;;;20.25;100.00
8575;BME280;4325;42.520;27.448;2022-11-20T06:34:04;100732.66;;;20.15;100.00
8575;BME280;4325;42.520;27.448;2022-11-20T06:36:32;100720.41;;;20.16;100.00
8575;BME280;4325;42.520;27.448;2022-11-20T06:38:59;100709.44;;;20.20;100.00
8575;BME280;4325;42.520;27.448;2022-11-20T06:41:26;100698.81;;;20.22;100.00
8575;BME280;4325;42.520;27.448;2022-11-20T06:43:54;100710.44;;;20.65;100.00
8575;BME280;4325;42.520;27.448;2022-11-20T06:46:21;100703.78;;;20.78;100.00
8575;BME280;4325;42.520;27.448;2022-11-20T06:48:49;100706.28;;;21.13;100.00
8575;BME280;4325;42.520;27.448;2022-11-20T06:51:16;100704.38;;;21.04;100.00
8575;BME280;4325;42.520;27.448;2022-11-20T06:53:43;100701.59;;;21.04;100.00
8575;BME280;4325;42.520;27.448;2022-11-20T06:56:10;100696.56;;;20.98;100.00
8575;BME280;4325;42.520;27.448;2022-11-20T06:58:37;100687.94;;;20.91;100.00
8575;BME280;4325;42.520;27.448;2022-11-20T07:01:07;100717.63;;;21.08;99.49
8575;BME280;4325;42.520;27.448;2022-11-20T07:03:35;100697.59;;;20.93;100.00
8575;BME280;4325;42.520;27.448;2022-11-20T07:06:03;100704.00;;;20.73;100.00
8575;BME280;4325;42.520;27.448;2022-11-20T07:08:30;100694.69;;;20.69;100.00
8575;BME280;4325;42.520;27.448;2022-11-20T07:10:58;100713.31;;;20.77;100.00
8575;BME280;4325;42.520;27.448;2022-11-20T07:13:25;100718.66;;;20.82;100.00
8575;BME280;4325;42.520;27.448;2022-11-20T07:15:52;100720.00;;;20.76;100.00
8575;BME280;4325;42.520;27.448;2022-11-20T07:18:20;100717.94;;;20.73;100.00
8575;BME280;4325;42.520;27.448;2022-11-20T07:20:47;100713.97;;;20.74;100.00
8575;BME280;4325;42.520;27.448;2022-11-20T07:23:14;100709.44;;;20.70;100.00
8575;BME280;4325;42.520;27.448;2022-11-20T07:25:41;100714.53;;;20.68;100.00
8575;BME280;4325;42.520;27.448;2022-11-20T07:28:08;100709.78;;;20.68;100.00
8575;BME280;4325;42.520;27.448;2022-11-20T07:30:36;100710.44;;;20.65;100.00
8575;BME280;4325;42.520;27.448;2022-11-20T07:33:03;100719.94;;;20.64;100.00
8575;BME280;4325;42.520;27.448;2022-11-20T07:35:31;100725.66;;;20.68;99.96
8575;BME280;4325;42.520;27.448;2022-11-20T07:37:58;100730.06;;;20.69;99.75
8575;BME280;4325;42.520;27.448;2022-11-20T07:40:25;100722.53;;;20.69;99.83
8575;BME280;4325;42.520;27.448;2022-11-20T07:42:52;100734.31;;;20.66;99.95
8575;BME280;4325;42.520;27.448;2022-11-20T07:45:21;100728.44;;;20.68;99.85
8575;BME280;4325;42.520;27.448;2022-11-20T07:47:48;100718.72;;;20.74;99.35
8575;BME280;4325;42.520;27.448;2022-11-20T07:50:16;100713.72;;;20.67;99.35
8575;BME280;4325;42.520;27.448;2022-11-20T07:52:45;100721.84;;;20.72;99.29
8575;BME280;4325;42.520;27.448;2022-11-20T07:55:12;100721.84;;;20.72;99.13
8575;BME280;4325;42.520;27.448;2022-11-20T07:57:39;100735.56;;;20.77;98.47
8575;BME280;4325;42.520;27.448;2022-11-20T08:00:08;100739.28;;;20.81;98.00
8575;BME280;4325;42.520;27.448;2022-11-20T08:02:36;100729.31;;;20.80;97.95
8575;BME280;4325;42.520;27.448;2022-11-20T08:05:04;100734.19;;;20.83;97.63
8575;BME280;4325;42.520;27.448;2022-11-20T08:07:35;100739.34;;;20.93;97.41
8575;BME280;4325;42.520;27.448;2022-11-20T08:10:04;100737.84;;;20.96;96.80
8575;BME280;4325;42.520;27.448;2022-11-20T08:12:31;100746.34;;;20.99;96.75
8575;BME280;4325;42.520;27.448;2022-11-20T08:15:16;100726.03;;;20.99;95.98
8575;BME280;4325;42.520;27.448;2022-11-20T08:17:43;100747.78;;;21.05;95.57
8575;BME280;4325;42.520;27.448;2022-11-20T08:20:09;100734.03;;;21.00;95.46
8575;BME280;4325;42.520;27.448;2022-11-20T08:22:36;100741.25;;;21.01;95.65
8575;BME280;4325;42.520;27.448;2022-11-20T08:25:05;100744.78;;;21.11;95.38
8575;BME280;4325;42.520;27.448;2022-11-20T08:27:32;100735.28;;;21.12;95.26
8575;BME280;4325;42.520;27.448;2022-11-20T08:29:59;100733.44;;;21.16;95.16
8575;BME280;4325;42.520;27.448;2022-11-20T08:32:26;100736.13;;;21.12;95.55
8575;BME280;4325;42.520;27.448;2022-11-20T08:34:53;100752.69;;;21.09;95.73
8575;BME280;4325;42.520;27.448;2022-11-20T08:37:20;100745.59;;;21.11;95.64
8575;BME280;4325;42.520;27.448;2022-11-20T08:39:46;100764.88;;;21.16;95.29
8575;BME280;4325;42.520;27.448;2022-11-20T08:42:15;100762.66;;;21.10;95.77
8575;BME280;4325;42.520;27.448;2022-11-20T08:44:41;100752.00;;;21.12;95.58
8575;BME280;4325;42.520;27.448;2022-11-20T08:47:09;100767.81;;;21.20;95.38
8575;BME280;4325;42.520;27.448;2022-11-20T08:49:35;100766.78;;;21.24;95.31
8575;BME280;4325;42.520;27.448;2022-11-20T08:52:02;100766.28;;;21.22;95.22
8575;BME280;4325;42.520;27.448;2022-11-20T08:54:29;100770.97;;;21.30;94.83
8575;BME280;4325;42.520;27.448;2022-11-20T08:56:56;100765.78;;;21.41;94.37
8575;BME280;4325;42.520;27.448;2022-11-20T08:59:24;100759.34;;;21.49;93.66
8575;BME280;4325;42.520;27.448;2022-11-20T09:01:51;100752.13;;;21.48;93.49
8575;BME280;4325;42.520;27.448;2022-11-20T09:04:19;100756.56;;;21.61;93.15
8575;BME280;4325;42.520;27.448;2022-11-20T09:06:46;100749.38;;;21.60;92.83
8575;BME280;4325;42.520;27.448;2022-11-20T09:09:16;100754.66;;;21.41;93.71
8575;BME280;4325;42.520;27.448;2022-11-20T09:11:43;100755.59;;;21.45;93.99
8575;BME280;4325;42.520;27.448;2022-11-20T09:14:11;100759.34;;;21.49;93.66
8575;BME280;4325;42.520;27.448;2022-11-20T09:16:39;100747.69;;;21.47;93.86
8575;BME280;4325;42.520;27.448;2022-11-20T09:19:06;100756.25;;;21.42;93.95
8575;BME280;4325;42.520;27.448;2022-11-20T09:21:33;100753.22;;;21.35;94.18
8575;BME280;4325;42.520;27.448;2022-11-20T09:24:00;100743.50;;;21.41;94.14
8575;BME280;4325;42.520;27.448;2022-11-20T09:26:27;100747.69;;;21.47;93.26
8575;BME280;4325;42.520;27.448;2022-11-20T09:28:54;100746.44;;;21.56;92.88
8575;BME280;4325;42.520;27.448;2022-11-20T09:31:23;100755.06;;;21.63;92.36
8575;BME280;4325;42.520;27.448;2022-11-20T09:33:52;100741.00;;;21.60;92.35
8575;BME280;4325;42.520;27.448;2022-11-20T09:36:19;100731.03;;;21.71;91.90
8575;BME280;4325;42.520;27.448;2022-11-20T09:38:46;100719.44;;;21.81;90.94
8575;BME280;4325;42.520;27.448;2022-11-20T09:41:31;100714.03;;;21.85;90.31
8575;BME280;4325;42.520;27.448;2022-11-20T09:44:06;100706.66;;;21.80;91.13
8575;BME280;4325;42.520;27.448;2022-11-20T09:46:40;100716.06;;;21.76;90.86
8575;BME280;4325;42.520;27.448;2022-11-20T09:49:23;100709.47;;;21.80;90.94
8575;BME280;4325;42.520;27.448;2022-11-20T09:51:58;100695.53;;;21.80;91.00
8575;BME280;4325;42.520;27.448;2022-11-20T09:54:28;100692.72;;;21.80;90.76
8575;BME280;4325;42.520;27.448;2022-11-20T09:57:00;100694.09;;;21.62;90.71
8575;BME280;4325;42.520;27.448;2022-11-20T09:59:36;100687.59;;;21.58;90.78
8575;BME280;4325;42.520;27.448;2022-11-20T10:02:16;100688.28;;;21.55;90.06
8575;BME280;4325;42.520;27.448;2022-11-20T10:04:49;100687.38;;;21.63;89.94
8575;BME280;4325;42.520;27.448;2022-11-20T10:07:22;100679.25;;;21.58;90.40
8575;BME280;4325;42.520;27.448;2022-11-20T10:09:52;100678.31;;;21.66;90.15
8575;BME280;4325;42.520;27.448;2022-11-20T10:12:27;100675.41;;;21.75;89.61
8575;BME280;4325;42.520;27.448;2022-11-20T10:15:01;100679.50;;;21.89;88.59
8575;BME280;4325;42.520;27.448;2022-11-20T10:20:45;100671.28;;;22.05;87.44
8575;BME280;4325;42.520;27.448;2022-11-20T10:23:22;100681.47;;;22.13;86.67
8575;BME280;4325;42.520;27.448;2022-11-20T10:26:16;100672.53;;;22.07;86.52
8575;BME280;4325;42.520;27.448;2022-11-20T10:28:52;100662.09;;;21.92;87.18
8575;BME280;4325;42.520;27.448;2022-11-20T10:31:28;100653.97;;;21.99;86.60
8575;BME280;4325;42.520;27.448;2022-11-20T10:33:57;100656.81;;;22.15;85.83
8575;BME280;4325;42.520;27.448;2022-11-20T10:36:32;100655.31;;;22.17;85.20
8575;BME280;4325;42.520;27.448;2022-11-20T10:39:09;100653.25;;;22.14;85.15
8575;BME280;4325;42.520;27.448;2022-11-20T10:41:41;100647.06;;;22.21;84.83
8575;BME280;4325;42.520;27.448;2022-11-20T10:44:12;100654.41;;;22.13;85.06
8575;BME280;4325;42.520;27.448;2022-11-20T10:47:01;100647.22;;;21.88;86.47
8575;BME280;4325;42.520;27.448;2022-11-20T10:49:28;100653.72;;;21.68;87.44
8575;BME280;4325;42.520;27.448;2022-11-20T10:52:04;100645.44;;;21.59;88.34
8575;BME280;4325;42.520;27.448;2022-11-20T10:54:41;100637.91;;;21.48;88.99
8575;BME280;4325;42.520;27.448;2022-11-20T10:57:18;100627.59;;;21.48;88.85
8575;BME280;4325;42.520;27.448;2022-11-20T10:59:59;100646.94;;;21.45;88.67
8575;BME280;4325;42.520;27.448;2022-11-20T11:02:33;100632.41;;;21.39;89.09
8575;BME280;4325;42.520;27.448;2022-11-20T11:05:16;100614.69;;;21.32;89.89
8575;BME280;4325;42.520;27.448;2022-11-20T11:07:48;100618.16;;;21.29;89.67
8575;BME280;4325;42.520;27.448;2022-11-20T11:10:18;100621.03;;;21.20;90.21
8575;BME280;4325;42.520;27.448;2022-11-20T11:12:47;100611.03;;;21.07;90.87
8575;BME280;4325;42.520;27.448;2022-11-20T11:15:24;100614.84;;;21.02;91.47
8575;BME280;4325;42.520;27.448;2022-11-20T11:17:52;100617.94;;;21.01;91.45
8575;BME280;4325;42.520;27.448;2022-11-20T11:20:21;100623.31;;;21.06;91.31
8575;BME280;4325;42.520;27.448;2022-11-20T11:22:51;100611.69;;;21.04;90.74
8575;BME280;4325;42.520;27.448;2022-11-20T11:25:27;100620.69;;;21.10;90.37
8575;BME280;4325;42.520;27.448;2022-11-20T11:27:56;100615.56;;;21.12;90.15
8575;BME280;4325;42.520;27.448;2022-11-20T11:30:24;100617.19;;;21.13;90.59
8575;BME280;4325;42.520;27.448;2022-11-20T11:33:03;100624.50;;;21.05;91.35
8575;BME280;4325;42.520;27.448;2022-11-20T11:35:30;100624.31;;;21.01;91.72
8575;BME280;4325;42.520;27.448;2022-11-20T11:38:05;100630.56;;;20.98;91.66
8575;BME280;4325;42.520;27.448;2022-11-20T11:40:35;100616.88;;;20.93;91.96
8575;BME280;4325;42.520;27.448;2022-11-20T11:43:06;100622.91;;;20.95;92.02
8575;BME280;4325;42.520;27.448;2022-11-20T11:45:54;100634.53;;;20.97;92.04
8575;BME280;4325;42.520;27.448;2022-11-20T11:48:21;100647.28;;;20.98;92.05
8575;BME280;4325;42.520;27.448;2022-11-20T11:50:49;100639.38;;;21.00;92.22
8575;BME280;4325;42.520;27.448;2022-11-20T11:53:20;100642.31;;;21.04;91.94
8575;BME280;4325;42.520;27.448;2022-11-20T11:55:54;100639.66;;;21.08;91.76
8575;BME280;4325;42.520;27.448;2022-11-20T11:58:41;100632.28;;;21.12;91.63
8575;BME280;4325;42.520;27.448;2022-11-20T12:01:21;100626.25;;;21.10;91.59
8575;BME280;4325;42.520;27.448;2022-11-20T12:03:58;100629.50;;;21.12;91.39
8575;BME280;4325;42.520;27.448;2022-11-20T12:06:26;100627.38;;;21.09;91.28
8575;BME280;4325;42.520;27.448;2022-11-20T12:09:02;100624.59;;;21.09;91.42
8575;BME280;4325;42.520;27.448;2022-11-20T12:11:33;100618.22;;;21.08;91.27
8575;BME280;4325;42.520;27.448;2022-11-20T12:14:08;100622.28;;;21.11;90.70
8575;BME280;4325;42.520;27.448;2022-11-20T12:16:38;100616.03;;;21.14;90.74
8575;BME280;4325;42.520;27.448;2022-11-20T12:19:10;100623.91;;;21.12;90.63
8575;BME280;4325;42.520;27.448;2022-11-20T12:21:44;100619.97;;;21.13;90.53
8575;BME280;4325;42.520;27.448;2022-11-20T12:24:41;100613.72;;;21.16;90.21
8575;BME280;4325;42.520;27.448;2022-11-20T12:30:11;100601.75;;;21.15;89.89
8575;BME280;4325;42.520;27.448;2022-11-20T12:35:52;100603.63;;;21.23;89.47
8575;BME280;4325;42.520;27.448;2022-11-20T12:38:45;100598.19;;;21.27;88.59
8575;BME280;4325;42.520;27.448;2022-11-20T12:41:24;100599.13;;;21.31;88.27
8575;BME280;4325;42.520;27.448;2022-11-20T12:44:24;100593.19;;;21.32;88.02
8575;BME280;4325;42.520;27.448;2022-11-20T12:47:27;100598.44;;;21.34;87.31
8575;BME280;4325;42.520;27.448;2022-11-20T12:50:02;100610.13;;;21.27;87.86
8575;BME280;4325;42.520;27.448;2022-11-20T12:52:40;100593.31;;;21.24;87.47
8575;BME280;4325;42.520;27.448;2022-11-20T12:55:28;100608.63;;;21.30;87.04
8575;BME280;4325;42.520;27.448;2022-11-20T12:58:08;100599.13;;;21.31;86.78
8575;BME280;4325;42.520;27.448;2022-11-20T13:00:41;100603.53;;;21.32;86.16
8575;BME280;4325;42.520;27.448;2022-11-20T13:03:31;100604.94;;;21.38;86.06
8575;BME280;4325;42.520;27.448;2022-11-20T13:06:10;100601.69;;;21.36;85.73
8575;BME280;4325;42.520;27.448;2022-11-20T13:08:41;100603.56;;;21.44;85.14
8575;BME280;4325;42.520;27.448;2022-11-20T13:11:14;100594.72;;;21.42;85.12
8575;BME280;4325;42.520;27.448;2022-11-20T13:16:50;100581.97;;;21.41;83.63
8575;BME280;4325;42.520;27.448;2022-11-20T13:19:20;100574.53;;;21.45;82.58
8575;BME280;4325;42.520;27.448;2022-11-20T13:21:48;100572.19;;;21.47;81.65